Time;durP1;ratioP1;P1;durP2;ratioP2;P2;SDS_P1;SDS_P2;PMS_P1;PMS_P2;Temp;Humidity;BMP_temperature;BMP_pressure;BME280_temperature;BME280_humidity;BME280_pressure;Samples;Min_cycle;Max_cycle;Signal;HPM_P1;HPM_P2
2023/09/06 00:01:17;;;;;;;7.85;2.20;;;;;;;;;;5008376;28;20092;-80
2023/09/06 00:03:42;;;;;;;4.32;3.00;;;;;;;;;;5008469;28;20042;-80
2023/09/06 00:06:10;;;;;;;9.73;3.05;;;19.40;94.90;;;;;;5009015;28;20084;-81
2023/09/06 00:08:36;;;;;;;4.50;2.47;;;;;;;;;;4999618;28;20034;-80
2023/09/06 00:11:06;;;;;;;5.38;2.97;;;19.70;91.60;;;;;;5008131;28;20025;-80
2023/09/06 00:13:33;;;;;;;3.83;2.65;;;;;;;;;;5009201;28;20049;-80
2023/09/06 00:16:03;;;;;;;4.00;3.53;;;19.70;97.90;;;;;;5007442;28;20121;-79
2023/09/06 00:18:29;;;;;;;4.70;2.53;;;;;;;;;;5010052;28;20092;-80
2023/09/06 00:20:57;;;;;;;5.28;2.95;;;;;;;;;;5009448;28;20021;-80
2023/09/06 00:23:24;;;;;;;5.10;3.20;;;;;;;;;;5009842;28;20017;-79
2023/09/06 00:25:51;;;;;;;7.82;2.83;;;;;;;;;;5009879;28;20040;-80
2023/09/06 00:28:18;;;;;;;6.30;2.80;;;19.30;92.30;;;;;;5020178;28;20394;-80
2023/09/06 00:30:44;;;;;;;;;;;;;;;;;;5010860;28;20100;-80
2023/09/06 00:33:10;;;;;;;13.18;3.38;;;19.00;98.90;;;;;;5009551;28;19905;-80
2023/09/06 00:35:40;;;;;;;4.80;2.40;;;19.10;99.20;;;;;;5009455;28;20030;-79
2023/09/06 00:38:06;;;;;;;5.50;2.40;;;;;;;;;;5008628;28;20037;-80
2023/09/06 00:40:36;;;;;;;7.18;2.80;;;19.10;92.40;;;;;;5009490;28;20489;-80
2023/09/06 00:43:03;;;;;;;4.45;2.55;;;;;;;;;;5007449;28;20029;-80
2023/09/06 00:45:36;;;;;;;4.55;2.55;;;19.00;93.10;;;;;;5009886;28;20029;-80
2023/09/06 00:48:05;;;;;;;3.75;2.83;;;;;;;;;;5008160;28;20095;-80
2023/09/06 00:50:32;;;;;;;9.02;3.30;;;;;;;;;;5009231;28;20061;-79
2023/09/06 00:52:59;;;;;;;4.85;3.03;;;19.00;93.30;;;;;;5009328;28;20668;-80
2023/09/06 00:55:25;;;;;;;5.20;3.10;;;;;;;;;;5009236;28;20042;-80
2023/09/06 00:57:52;;;;;;;4.45;3.42;;;;;;;;;;5009446;28;20022;-80
2023/09/06 01:00:19;;;;;;;7.13;3.95;;;;;;;;;;5007456;28;20049;-79
2023/09/06 01:02:47;;;;;;;5.18;3.22;;;18.90;93.60;;;;;;5008672;28;20460;-79
2023/09/06 01:05:13;;;;;;;;;;;18.90;94.40;;;;;;5005226;28;20021;-80
2023/09/06 01:07:39;;;;;;;3.55;2.92;;;;;;;;;;5009121;28;19913;-80
2023/09/06 01:10:05;;;;;;;5.07;2.53;;;18.70;99.90;;;;;;5012321;28;20395;-80
2023/09/06 01:12:34;;;;;;;9.30;2.90;;;18.60;99.90;;;;;;5013450;28;20518;-80
2023/09/06 01:15:00;;;;;;;5.63;3.00;;;;;;;;;;4999918;28;20107;-79
2023/09/06 01:17:28;;;;;;;4.25;2.80;;;18.80;95.20;;;;;;5008809;28;20050;-80
2023/09/06 01:20:05;;;;;;;4.97;3.38;;;18.90;94.40;;;;;;5008595;28;20028;-80
2023/09/06 01:22:41;;;;;;;6.38;2.60;;;19.50;99.90;;;;;;5008371;28;20026;-79
2023/09/06 01:25:08;;;;;;;2.90;2.25;;;;;;;;;;5008849;28;20045;-80
2023/09/06 01:27:34;;;;;;;5.53;2.67;;;18.90;93.60;;;;;;5008838;28;20450;-80
2023/09/06 01:30:00;;;;;;;6.35;2.47;;;;;;;;;;5008602;28;20045;-80
2023/09/06 01:32:26;;;;;;;3.70;2.17;;;;;;;;;;5008760;28;20033;-80
2023/09/06 01:34:54;;;;;;;4.85;2.47;;;;;;;;;;5008516;28;20039;-80
2023/09/06 01:37:21;;;;;;;;;;;18.60;94.80;;;;;;5009414;28;20018;-80
2023/09/06 01:39:47;;;;;;;6.00;2.20;;;;;;;;;;5007241;28;20047;-79
2023/09/06 01:42:13;;;;;;;5.60;2.53;;;;;;;;;;5007168;28;20333;-80
2023/09/06 01:44:39;;;;;;;4.82;2.20;;;;;;;;;;5009505;28;20065;-80
2023/09/06 01:47:05;;;;;;;4.72;2.65;;;18.30;99.90;;;;;;5012740;28;20065;-79
2023/09/06 01:49:31;;;;;;;4.07;2.67;;;;;;;;;;5011446;28;20077;-80
2023/09/06 01:51:59;;;;;;;2.90;2.42;;;;;;;;;;5012423;28;20057;-80
2023/09/06 01:54:25;;;;;;;4.35;2.70;;;;;;;;;;5012376;28;20030;-80
2023/09/06 01:56:51;;;;;;;4.05;2.63;;;;;;;;;;4998395;28;20033;-80
2023/09/06 01:59:17;;;;;;;7.15;3.60;;;18.50;99.90;;;;;;5012140;28;20506;-79
2023/09/06 02:01:43;;;;;;;7.32;2.58;;;;;;;;;;5012408;28;20656;-80
2023/09/06 02:04:09;;;;;;;8.85;2.70;;;;;;;;;;5011894;28;20108;-80
2023/09/06 02:06:35;;;;;;;4.95;2.90;;;;;;;;;;5011226;28;20161;-80
2023/09/06 02:09:01;;;;;;;4.90;2.80;;;;;;;;;;5011869;28;20404;-80
2023/09/06 02:11:27;;;;;;;4.78;3.03;;;;;;;;;;5010086;28;20026;-80
2023/09/06 02:13:53;;;;;;;5.38;2.83;;;;;;;;;;5011655;28;20553;-80
2023/09/06 02:16:19;;;;;;;4.85;3.08;;;;;;;;;;5012113;28;20407;-79
2023/09/06 02:18:45;;;;;;;6.53;2.83;;;;;;;;;;5012329;28;20026;-80
2023/09/06 02:21:11;;;;;;;6.68;3.20;;;;;;;;;;5011561;28;20475;-80
2023/09/06 02:23:37;;;;;;;3.85;2.13;;;;;;;;;;5012002;28;20021;-80
2023/09/06 02:26:03;;;;;;;5.07;2.65;;;18.20;99.90;;;;;;5011887;28;20794;-80
2023/09/06 02:28:29;;;;;;;9.50;3.00;;;;;;;;;;5013149;28;20052;-79
2023/09/06 02:30:55;;;;;;;3.85;2.33;;;;;;;;;;5020980;28;20076;-80
2023/09/06 02:33:20;;;;;;;5.15;2.53;;;18.20;99.90;;;;;;5011356;28;20022;-80
2023/09/06 02:35:49;;;;;;;4.63;2.83;;;18.10;96.40;;;;;;5011318;28;20117;-80
2023/09/06 02:38:15;;;;;;;5.05;3.08;;;;;;;;;;5009109;28;20088;-80
2023/09/06 02:40:41;;;;;;;9.00;3.42;;;;;;;;;;5011952;28;20026;-80
2023/09/06 02:43:07;;;;;;;4.63;3.17;;;;;;;;;;5010635;28;20022;-79
2023/09/06 02:45:36;;;;;;;4.13;2.95;;;;;;;;;;5010138;28;20388;-80
2023/09/06 02:48:07;;;;;;;5.40;3.10;;;17.90;98.10;;;;;;5010912;28;20028;-80
2023/09/06 02:50:36;;;;;;;3.92;3.22;;;17.90;97.80;;;;;;5010016;28;20507;-80
2023/09/06 02:53:03;;;;;;;6.95;2.65;;;;;;;;;;5011007;28;20564;-79
2023/09/06 02:55:33;;;;;;;3.75;2.78;;;18.10;97.60;;;;;;5011348;28;20409;-80
2023/09/06 02:57:59;;;;;;;4.20;3.03;;;;;;;;;;5011021;28;20459;-80
2023/09/06 03:00:26;;;;;;;11.43;3.35;;;;;;;;;;5011091;28;20138;-80
2023/09/06 03:03:05;;;;;;;3.75;2.75;;;17.90;99.90;;;;;;5010989;28;20050;-80
2023/09/06 03:05:31;;;;;;;4.10;3.42;;;;;;;;;;5011122;28;20022;-79
2023/09/06 03:07:57;;;;;;;4.40;2.75;;;17.90;99.90;;;;;;5011385;28;20406;-80
2023/09/06 03:10:23;;;;;;;7.05;2.65;;;;;;;;;;5009319;28;20022;-79
2023/09/06 03:12:56;;;;;;;3.50;2.92;;;17.40;99.90;;;;;;5011850;28;20085;-79
2023/09/06 03:15:23;;;;;;;5.35;2.83;;;;;;;;;;5004386;28;20387;-80
2023/09/06 03:17:51;;;;;;;3.85;2.97;;;17.40;99.90;;;;;;5015577;28;20493;-79
2023/09/06 03:23:01;;;;;;;6.45;3.03;;;17.70;99.20;;;;;;5011601;28;20109;-79
2023/09/06 03:25:27;;;;;;;6.78;3.63;;;;;;;;;;5009080;28;20029;-80
2023/09/06 03:28:00;;;;;;;7.35;3.65;;;;;;;;;;5009364;28;20450;-80
2023/09/06 03:30:33;;;;;;;4.70;2.63;;;;;;;;;;5010174;28;20060;-80
2023/09/06 03:33:00;;;;;;;5.65;2.80;;;;;;;;;;5010765;28;20034;-80
2023/09/06 03:35:27;;;;;;;3.70;2.75;;;;;;;;;;5008949;28;20040;-80
2023/09/06 03:37:53;;;;;;;5.43;3.55;;;;;;;;;;5010302;28;20491;-79
2023/09/06 03:40:37;;;;;;;4.32;3.35;;;;;;;;;;5010661;28;20025;-79
2023/09/06 03:43:14;;;;;;;6.30;3.08;;;;;;;;;;5010262;28;20065;-80
2023/09/06 03:45:42;;;;;;;;;;;17.40;99.90;;;;;;5011061;28;20022;-81
2023/09/06 03:48:08;;;;;;;10.30;3.28;;;;;;;;;;5009849;28;19909;-79
2023/09/06 03:50:34;;;;;;;4.18;3.08;;;;;;;;;;5008674;28;20025;-79
2023/09/06 03:53:04;;;;;;;6.63;3.17;;;;;;;;;;5010166;28;20096;-79
2023/09/06 03:55:31;;;;;;;5.70;2.92;;;;;;;;;;5010784;28;20034;-80
2023/09/06 03:57:56;;;;;;;8.38;3.25;;;17.00;99.90;;;;;;5009879;28;20479;-80
2023/09/06 04:00:26;;;;;;;7.88;2.78;;;;;;;;;;5009707;28;20042;-80
2023/09/06 04:02:56;;;;;;;8.55;3.08;;;;;;;;;;5009931;28;20085;-80
2023/09/06 04:05:25;;;;;;;5.15;3.15;;;;;;;;;;5009782;28;20387;-79
2023/09/06 04:07:53;;;;;;;6.43;2.90;;;17.20;99.90;;;;;;4997466;28;20025;-80
2023/09/06 04:10:21;;;;;;;6.57;3.42;;;;;;;;;;5009805;28;20053;-80
2023/09/06 04:12:53;;;;;;;3.78;2.72;;;17.10;99.90;;;;;;5008441;28;20033;-80
2023/09/06 04:15:22;;;;;;;3.85;3.38;;;;;;;;;;5009170;28;20042;-79
2023/09/06 04:17:58;;;;;;;6.60;2.83;;;;;;;;;;5009975;28;20088;-80
2023/09/06 04:20:31;;;;;;;8.35;3.25;;;17.20;99.90;;;;;;5009523;28;20474;-79
2023/09/06 04:22:58;;;;;;;7.15;3.90;;;17.30;99.90;;;;;;5009863;28;20105;-80
2023/09/06 04:25:26;;;;;;;3.88;2.88;;;;;;;;;;5012121;28;20101;-80
2023/09/06 04:27:56;;;;;;;8.00;3.60;;;17.30;99.90;;;;;;5009840;28;20037;-79
2023/09/06 04:30:24;;;;;;;5.32;3.40;;;17.30;99.90;;;;;;5009295;28;20456;-79
2023/09/06 04:32:51;;;;;;;5.25;3.28;;;17.40;99.90;;;;;;5010063;28;20030;-79
2023/09/06 04:35:17;;;;;;;10.80;2.97;;;;;;;;;;5009270;28;20044;-79
2023/09/06 04:37:43;;;;;;;6.40;3.05;;;;;;;;;;5009922;28;20021;-79
2023/09/06 04:40:13;;;;;;;3.95;2.85;;;17.10;99.90;;;;;;5009166;28;20033;-80
2023/09/06 04:42:40;;;;;;;9.48;3.40;;;16.90;99.90;;;;;;5008227;28;20038;-80
2023/09/06 04:45:09;;;;;;;9.97;3.80;;;17.00;99.90;;;;;;5007348;28;20018;-80
2023/09/06 04:47:36;;;;;;;6.57;3.92;;;;;;;;;;5009052;28;20269;-80
2023/09/06 04:50:03;;;;;;;9.10;3.83;;;;;;;;;;5008096;28;20014;-79
2023/09/06 04:52:29;;;;;;;4.65;3.60;;;;;;;;;;5007736;28;20522;-79
2023/09/06 04:54:56;;;;;;;7.22;3.95;;;;;;;;;;5008981;28;20038;-80
2023/09/06 04:57:24;;;;;;;5.47;3.42;;;;;;;;;;5008983;28;20025;-79
2023/09/06 04:59:50;;;;;;;5.97;4.43;;;;;;;;;;5008784;28;20498;-79
2023/09/06 05:02:16;;;;;;;4.68;3.92;;;;;;;;;;5007417;28;20069;-80
2023/09/06 05:04:43;;;;;;;8.55;5.28;;;;;;;;;;5007586;28;20399;-80
2023/09/06 05:07:09;;;;;;;6.70;4.07;;;;;;;;;;5008003;28;20531;-79
2023/09/06 05:09:35;;;;;;;5.88;4.13;;;;;;;;;;5008623;28;20048;-79
2023/09/06 05:12:01;;;;;;;5.55;3.58;;;17.10;99.90;;;;;;5007161;28;20046;-79
2023/09/06 05:14:29;;;;;;;8.98;3.85;;;17.10;99.90;;;;;;5004232;28;20056;-80
2023/09/06 05:16:55;;;;;;;8.77;3.50;;;;;;;;;;5006094;28;20046;-79
2023/09/06 05:19:27;;;;;;;7.05;4.07;;;;;;;;;;5013842;28;20040;-80
2023/09/06 05:21:53;;;;;;;8.32;3.63;;;;;;;;;;5008917;28;20037;-79
2023/09/06 05:24:19;;;;;;;7.50;4.35;;;;;;;;;;5008520;28;20034;-79
2023/09/06 05:26:45;;;;;;;5.32;3.53;;;17.20;99.90;;;;;;5008338;28;20034;-79
2023/09/06 05:29:11;;;;;;;9.73;4.50;;;;;;;;;;5006950;28;20041;-81
2023/09/06 05:31:37;;;;;;;14.45;4.75;;;;;;;;;;5008652;28;20155;-84
2023/09/06 05:34:03;;;;;;;5.93;3.33;;;;;;;;;;5005769;28;20483;-84
2023/09/06 05:36:29;;;;;;;4.30;3.55;;;;;;;;;;5003011;28;20028;-84
2023/09/06 05:38:55;;;;;;;5.45;3.13;;;;;;;;;;4998501;28;20030;-85
2023/09/06 05:41:21;;;;;;;5.97;3.97;;;;;;;;;;5008143;28;20084;-86
2023/09/06 05:43:47;;;;;;;4.47;3.35;;;;;;;;;;5008329;28;20119;-86
2023/09/06 05:46:13;;;;;;;6.50;3.45;;;;;;;;;;5006383;28;20026;-86
2023/09/06 05:48:39;;;;;;;5.50;3.33;;;;;;;;;;5008749;28;20495;-87
2023/09/06 05:51:05;;;;;;;6.35;3.58;;;;;;;;;;5004720;28;20044;-86
2023/09/06 05:53:31;;;;;;;4.63;3.60;;;;;;;;;;5004455;28;20399;-86
2023/09/06 05:55:57;;;;;;;8.10;3.50;;;;;;;;;;5007886;28;20038;-86
2023/09/06 05:58:26;;;;;;;5.18;2.97;;;18.30;98.20;;;;;;5008989;28;20025;-85
2023/09/06 06:00:56;;;;;;;6.45;3.67;;;;;;;;;;5011946;28;20025;-82
2023/09/06 06:03:23;;;;;;;5.72;3.63;;;;;;;;;;5007437;28;20022;-80
2023/09/06 06:05:51;;;;;;;;;;;21.70;85.40;;;;;;5008655;28;20510;-76
2023/09/06 06:08:17;;;;;;;9.57;4.07;;;;;;;;;;5007907;28;19905;-76
2023/09/06 06:10:43;;;;;;;6.13;4.13;;;;;;;;;;5006971;28;20132;-76
2023/09/06 06:13:11;;;;;;;5.50;3.60;;;26.80;68.30;;;;;;5007242;28;20571;-75
2023/09/06 06:15:37;;;;;;;3.83;3.15;;;;;;;;;;5007273;28;20108;-76
2023/09/06 06:18:05;;;;;;;4.88;2.67;;;;;;;;;;5007559;28;20057;-76
2023/09/06 06:20:31;;;;;;;9.13;3.10;;;;;;;;;;5005797;28;20446;-76
2023/09/06 06:22:58;;;;;;;7.03;3.03;;;;;;;;;;5004593;28;20451;-76
2023/09/06 06:25:23;;;;;;;4.87;3.57;;;;;;;;;;5004040;28;20415;-76
2023/09/06 06:27:52;;;;;;;3.95;3.05;;;30.10;62.20;;;;;;5007221;28;20026;-75
2023/09/06 06:30:19;;;;;;;4.88;3.33;;;;;;;;;;5008482;28;20103;-77
2023/09/06 06:32:45;;;;;;;3.90;3.45;;;;;;;;;;5011645;28;20505;-81
2023/09/06 06:35:12;;;;;;;3.80;3.10;;;36.10;51.10;;;;;;5010279;28;20029;-81
2023/09/06 06:37:38;;;;;;;5.47;3.00;;;;;;;;;;5010739;28;20084;-81
2023/09/06 06:40:05;;;;;;;4.60;3.20;;;;;;;;;;5010511;28;20029;-83
2023/09/06 06:42:32;;;;;;;6.22;3.15;;;40.00;34.50;;;;;;5011477;28;20406;-80
2023/09/06 06:44:58;;;;;;;6.18;2.85;;;;;;;;;;5010495;28;20033;-82
2023/09/06 06:47:24;;;;;;;4.63;2.90;;;;;;;;;;5009978;28;20033;-81
2023/09/06 06:49:51;;;;;;;3.67;3.03;;;42.30;31.00;;;;;;5010614;28;20018;-81
2023/09/06 06:52:17;;;;;;;2.63;2.33;;;;;;;;;;5010444;28;20101;-82
2023/09/06 06:54:42;;;;;;;3.92;2.58;;;;;;;;;;5004295;28;20582;-82
2023/09/06 06:57:09;;;;;;;3.88;2.47;;;;;;;;;;5010964;28;20037;-81
2023/09/06 06:59:34;;;;;;;;;;;44.30;29.90;;;;;;5010640;28;20025;-80
2023/09/06 07:02:00;;;;;;;5.88;2.78;;;;;;;;;;5008850;28;20332;-81
2023/09/06 07:04:26;;;;;;;5.35;2.47;;;;;;;;;;5009907;28;20042;-80
2023/09/06 07:06:53;;;;;;;12.45;2.63;;;;;;;;;;5010971;28;20423;-78
2023/09/06 07:09:19;;;;;;;2.90;2.17;;;;;;;;;;4993975;28;20565;-78
2023/09/06 07:11:45;;;;;;;8.00;2.42;;;;;;;;;;5014511;28;20038;-78
2023/09/06 07:14:11;;;;;;;3.58;2.60;;;;;;;;;;5015629;28;20037;-78
2023/09/06 07:16:37;;;;;;;5.00;2.85;;;49.80;27.30;;;;;;5023397;28;20080;-78
2023/09/06 07:19:04;;;;;;;6.88;2.72;;;;;;;;;;5013872;28;20030;-78
2023/09/06 07:21:31;;;;;;;6.00;3.30;;;;;;;;;;5011455;28;20038;-77
2023/09/06 07:23:57;;;;;;;4.18;2.63;;;;;;;;;;5004602;28;20033;-77
2023/09/06 07:26:23;;;;;;;3.00;2.70;;;;;;;;;;5011526;28;20211;-78
2023/09/06 07:28:50;;;;;;;2.75;2.55;;;47.70;25.00;;;;;;5013740;28;20053;-77
2023/09/06 07:31:16;;;;;;;3.08;2.65;;;;;;;;;;5007277;28;20212;-77
2023/09/06 07:33:42;;;;;;;4.63;2.25;;;;;;;;;;5013683;28;20441;-78
2023/09/06 07:36:10;;;;;;;4.30;2.42;;;;;;;;;;5011845;28;20040;-79
2023/09/06 07:38:36;;;;;;;4.75;2.20;;;;;;;;;;5009675;28;20475;-79
2023/09/06 07:41:05;;;;;;;3.38;2.35;;;51.00;23.90;;;;;;5008991;28;20184;-79
2023/09/06 07:43:31;;;;;;;6.72;2.80;;;;;;;;;;5010522;28;20026;-79
2023/09/06 07:45:58;;;;;;;2.78;2.10;;;52.50;24.10;;;;;;5000789;28;20022;-80
2023/09/06 07:48:29;;;;;;;6.88;2.47;;;52.90;23.50;;;;;;5006358;28;20018;-79
2023/09/06 07:50:56;;;;;;;4.53;2.63;;;54.40;24.60;;;;;;5006234;28;20034;-79
2023/09/06 07:53:23;;;;;;;3.70;2.72;;;;;;;;;;5008343;28;20033;-79
2023/09/06 07:55:50;;;;;;;3.78;2.28;;;54.50;24.30;;;;;;5002398;28;20040;-79
2023/09/06 07:58:16;;;;;;;6.00;3.03;;;55.40;24.00;;;;;;5008386;28;20031;-79
2023/09/06 08:00:42;;;;;;;3.78;2.17;;;;;;;;;;5007561;28;20450;-80
2023/09/06 08:03:08;;;;;;;3.22;2.50;;;;;;;;;;5008181;28;20040;-81
2023/09/06 08:05:35;;;;;;;3.25;2.40;;;;;;;;;;4998657;28;20627;-82
2023/09/06 08:08:01;;;;;;;6.60;2.22;;;57.00;22.20;;;;;;5013611;28;20034;-80
2023/09/06 08:10:27;;;;;;;2.70;2.42;;;57.20;25.40;;;;;;5019226;28;21040;-82
2023/09/06 08:12:53;;;;;;;8.15;2.42;;;;;;;;;;5011404;28;20330;-82
2023/09/06 08:15:19;;;;;;;3.25;2.70;;;55.80;22.20;;;;;;5008820;28;20069;-81
2023/09/06 08:17:47;;;;;;;6.95;2.70;;;;;;;;;;5013862;28;20100;-80
2023/09/06 08:20:15;;;;;;;5.10;2.30;;;56.30;21.70;;;;;;5011321;28;20582;-80
2023/09/06 08:22:42;;;;;;;2.72;2.15;;;56.70;21.70;;;;;;5014569;28;20041;-79
2023/09/06 08:25:08;;;;;;;4.53;2.70;;;;;;;;;;5004659;28;20029;-79
2023/09/06 08:27:34;;;;;;;3.20;2.28;;;;;;;;;;5013408;28;20025;-80
2023/09/06 08:29:59;;;;;;;4.95;2.47;;;57.20;25.80;;;;;;5015942;28;20056;-80
2023/09/06 08:32:25;;;;;;;4.72;2.45;;;;;;;;;;5009763;28;20502;-80
2023/09/06 08:34:51;;;;;;;8.48;2.75;;;;;;;;;;5004810;28;20232;-80
2023/09/06 08:37:17;;;;;;;7.90;2.88;;;;;;;;;;5009122;28;20104;-80
2023/09/06 08:39:43;;;;;;;3.63;2.25;;;;;;;;;;5010182;28;20030;-80
2023/09/06 08:42:10;;;;;;;4.68;2.67;;;57.90;24.00;;;;;;5005674;28;20134;-80
2023/09/06 08:44:37;;;;;;;3.80;2.92;;;55.80;19.80;;;;;;5005588;28;20095;-80
2023/09/06 08:47:08;;;;;;;3.45;3.08;;;57.20;21.00;;;;;;5006076;28;20034;-80
2023/09/06 08:49:36;;;;;;;2.78;2.20;;;58.00;21.20;;;;;;5005606;28;20064;-80
2023/09/06 08:52:03;;;;;;;4.55;2.53;;;;;;;;;;5009992;28;20029;-80
2023/09/06 08:54:29;;;;;;;5.47;2.55;;;57.90;21.10;;;;;;5006402;28;20048;-80
2023/09/06 08:56:56;;;;;;;6.32;3.08;;;59.00;22.50;;;;;;5011061;28;20029;-79
2023/09/06 08:59:22;;;;;;;2.75;2.50;;;;;;;;;;5016453;28;20029;-79
2023/09/06 09:01:48;;;;;;;7.50;2.53;;;60.60;20.60;;;;;;5014292;28;20036;-80
2023/09/06 09:04:14;;;;;;;3.05;2.60;;;;;;;;;;5015070;28;20624;-84
2023/09/06 09:06:46;;;;;;;5.45;2.60;;;61.90;20.60;;;;;;5003576;28;20018;-81
2023/09/06 09:09:13;;;;;;;2.47;2.28;;;62.60;20.40;;;;;;5008096;28;20030;-82
2023/09/06 09:11:43;;;;;;;11.52;3.05;;;62.50;19.90;;;;;;5012588;28;20041;-83
2023/09/06 09:14:21;;;;;;;3.38;2.78;;;62.70;20.10;;;;;;5011741;28;20116;-81
2023/09/06 09:16:58;;;;;;;3.10;2.85;;;62.60;20.20;;;;;;5001643;28;20518;-81
2023/09/06 09:19:24;;;;;;;5.10;2.97;;;62.60;20.10;;;;;;5014458;28;20056;-81
2023/09/06 09:21:51;;;;;;;5.63;3.15;;;;;;;;;;5012728;28;20518;-81
2023/09/06 09:24:29;;;;;;;3.67;3.38;;;62.40;20.20;;;;;;5007583;28;20101;-82
2023/09/06 09:26:58;;;;;;;5.18;3.10;;;62.70;20.10;;;;;;5013699;28;20032;-79
2023/09/06 09:29:27;;;;;;;2.95;2.72;;;62.70;24.50;;;;;;5009956;28;20068;-79
2023/09/06 09:31:53;;;;;;;4.35;3.08;;;;;;;;;;5008632;28;20049;-79
2023/09/06 09:34:19;;;;;;;3.35;2.97;;;;;;;;;;5004993;28;20399;-79
2023/09/06 09:36:51;;;;;;;3.83;2.80;;;63.70;20.00;;;;;;5008780;28;20018;-78
2023/09/06 09:39:18;;;;;;;3.22;2.97;;;;;;;;;;5004169;28;20557;-79
2023/09/06 09:41:44;;;;;;;4.30;2.80;;;;;;;;;;5005130;28;20041;-79
2023/09/06 09:44:14;;;;;;;4.78;2.95;;;63.00;20.00;;;;;;5007308;28;20573;-79
2023/09/06 09:46:44;;;;;;;3.03;2.70;;;63.10;20.90;;;;;;5006441;28;20057;-79
2023/09/06 09:49:11;;;;;;;3.95;3.40;;;63.10;19.70;;;;;;5005260;28;20075;-79
2023/09/06 09:51:38;;;;;;;2.75;2.35;;;63.20;20.00;;;;;;5010055;28;20072;-79
2023/09/06 09:54:05;;;;;;;4.20;2.95;;;63.50;19.90;;;;;;5007359;28;20040;-78
2023/09/06 09:56:34;;;;;;;3.35;2.67;;;63.30;24.60;;;;;;5004938;28;20559;-78
2023/09/06 09:59:02;;;;;;;5.78;3.00;;;63.00;19.80;;;;;;5004287;28;20030;-79
2023/09/06 10:01:30;;;;;;;2.75;2.35;;;;;;;;;;5011953;28;20036;-79
2023/09/06 10:03:57;;;;;;;2.38;2.17;;;;;;;;;;5002890;28;20034;-78
2023/09/06 10:06:26;;;;;;;4.18;2.42;;;63.10;19.60;;;;;;5006856;28;20097;-82
2023/09/06 10:08:55;;;;;;;5.97;3.08;;;62.80;23.50;;;;;;5015068;28;20030;-79
2023/09/06 10:11:21;;;;;;;10.75;2.33;;;;;;;;;;5015665;28;20048;-79
2023/09/06 10:13:51;;;;;;;8.95;2.88;;;61.00;25.40;;;;;;5013060;28;20386;-81
2023/09/06 10:16:18;;;;;;;3.38;2.42;;;61.50;20.30;;;;;;5015997;28;20510;-81
2023/09/06 10:18:44;;;;;;;4.47;2.40;;;61.90;20.10;;;;;;5031502;28;20030;-81
2023/09/06 10:21:12;;;;;;;3.63;2.60;;;62.00;20.20;;;;;;5021156;28;20177;-80
2023/09/06 10:23:46;;;;;;;2.92;2.50;;;62.70;20.20;;;;;;5022873;28;20517;-82
2023/09/06 10:26:25;;;;;;;2.88;2.50;;;62.80;24.10;;;;;;5010220;28;20018;-81
2023/09/06 10:28:57;;;;;;;2.85;2.42;;;62.70;21.40;;;;;;5011249;28;20453;-81
2023/09/06 10:31:49;;;;;;;3.95;2.17;;;62.80;19.90;;;;;;5013579;28;20034;-80
2023/09/06 10:34:15;;;;;;;4.30;2.30;;;;;;;;;;5011911;28;20026;-81
2023/09/06 10:36:58;;;;;;;2.67;2.25;;;62.70;20.00;;;;;;5010290;28;20033;-80
2023/09/06 10:39:26;;;;;;;6.57;2.97;;;62.80;20.00;;;;;;5007204;28;20037;-81
2023/09/06 10:42:11;;;;;;;2.50;2.30;;;63.00;20.00;;;;;;5005398;28;20034;-80
2023/09/06 10:44:58;;;;;;;4.82;2.50;;;63.40;20.00;;;;;;5008518;28;20037;-81
2023/09/06 10:47:32;;;;;;;5.57;2.40;;;63.30;20.00;;;;;;5002341;28;20057;-81
2023/09/06 10:50:33;;;;;;;4.60;2.28;;;63.10;19.90;;;;;;5011706;28;20041;-80
2023/09/06 10:53:00;;;;;;;2.92;2.40;;;;;;;;;;5006243;28;20041;-81
2023/09/06 10:55:30;;;;;;;3.58;3.03;;;62.30;20.10;;;;;;5008153;28;20037;-80
2023/09/06 10:57:59;;;;;;;6.35;2.72;;;62.40;20.00;;;;;;5009543;28;20029;-79
2023/09/06 11:00:27;;;;;;;5.85;2.40;;;62.70;20.00;;;;;;5008864;28;20026;-81
2023/09/06 11:03:07;;;;;;;5.00;2.47;;;61.90;19.90;;;;;;5008494;28;20083;-80
2023/09/06 11:05:35;;;;;;;4.03;2.40;;;62.40;20.00;;;;;;5004597;28;20029;-80
2023/09/06 11:08:02;;;;;;;3.25;2.30;;;;;;;;;;5012534;28;20029;-81
2023/09/06 11:10:28;;;;;;;3.22;2.35;;;;;;;;;;5007798;28;20593;-81
2023/09/06 11:12:58;;;;;;;3.40;2.50;;;62.10;20.00;;;;;;5006255;28;20238;-81
2023/09/06 11:15:24;;;;;;;3.97;1.98;;;62.20;19.90;;;;;;5001751;28;20163;-80
2023/09/06 11:17:52;;;;;;;3.75;1.98;;;;;;;;;;5009134;28;20062;-80
2023/09/06 11:20:17;;;;;;;7.72;2.53;;;60.50;24.30;;;;;;5005840;28;20075;-81
2023/09/06 11:22:50;;;;;;;2.25;1.90;;;56.80;20.10;;;;;;5006312;28;20558;-80
2023/09/06 11:25:21;;;;;;;2.00;1.60;;;52.50;21.10;;;;;;5005635;28;20045;-80
2023/09/06 11:27:48;;;;;;;3.20;1.50;;;49.20;29.00;;;;;;5006297;28;20051;-80
2023/09/06 11:30:21;;;;;;;4.90;1.70;;;46.40;23.90;;;;;;5007062;28;20034;-80
2023/09/06 11:32:51;;;;;;;2.60;1.70;;;43.80;32.80;;;;;;5016212;28;20149;-79
2023/09/06 11:35:22;;;;;;;2.33;1.83;;;42.20;34.50;;;;;;5000106;28;20038;-80
2023/09/06 11:37:52;;;;;;;2.20;1.60;;;41.10;27.10;;;;;;5007154;28;20048;-80
2023/09/06 11:40:20;;;;;;;2.22;1.67;;;40.50;27.80;;;;;;5004646;28;20037;-80
2023/09/06 11:42:56;;;;;;;1.70;1.23;;;39.90;33.90;;;;;;5010262;28;20138;-84
2023/09/06 11:45:22;;;;;;;;;;;39.00;28.80;;;;;;5003807;28;20503;-85
2023/09/06 11:47:48;;;;;;;1.73;1.55;;;;;;;;;;5009541;28;19909;-85
2023/09/06 11:50:19;;;;;;;6.07;2.28;;;38.40;29.40;;;;;;5007335;28;20033;-83
2023/09/06 11:52:53;;;;;;;6.95;1.98;;;38.30;29.40;;;;;;5009929;28;20034;-83
2023/09/06 11:55:21;;;;;;;5.30;1.80;;;38.40;29.70;;;;;;5001049;28;20406;-78
2023/09/06 11:57:52;;;;;;;9.50;2.70;;;38.20;29.60;;;;;;5005105;28;20034;-78
2023/09/06 12:00:27;;;;;;;2.50;1.63;;;38.10;30.00;;;;;;5003190;28;20046;-78
2023/09/06 12:03:13;;;;;;;;;;;38.10;30.10;;;;;;5005700;28;20113;-81
2023/09/06 12:05:47;;;;;;;6.60;1.63;;;37.90;30.20;;;;;;5010385;28;20436;-80
2023/09/06 12:08:20;;;;;;;2.50;1.33;;;37.90;30.40;;;;;;5015766;28;20481;-79
2023/09/06 12:10:50;;;;;;;4.07;1.90;;;37.70;30.50;;;;;;5007738;28;20584;-78
2023/09/06 12:13:19;;;;;;;3.03;1.30;;;37.40;31.40;;;;;;5010453;28;20018;-80
2023/09/06 12:15:45;;;;;;;2.85;1.70;;;37.40;34.40;;;;;;5010644;28;20132;-78
2023/09/06 12:18:12;;;;;;;4.30;2.00;;;36.80;31.10;;;;;;5009269;28;20156;-79
2023/09/06 12:20:38;;;;;;;2.67;1.60;;;;;;;;;;5006770;28;20045;-78
2023/09/06 12:23:05;;;;;;;2.50;2.05;;;;;;;;;;5004184;28;20022;-79
2023/09/06 12:25:31;;;;;;;3.13;1.55;;;;;;;;;;5003959;28;20169;-85
2023/09/06 12:27:57;;;;;;;3.17;1.83;;;;;;;;;;5008655;28;20026;-90
2023/09/06 12:30:23;;;;;;;5.18;1.63;;;;;;;;;;5013397;28;20243;-87
2023/09/06 12:32:50;;;;;;;6.85;2.25;;;;;;;;;;5013460;28;20655;-89
2023/09/06 12:35:17;;;;;;;7.25;1.77;;;;;;;;;;5017355;28;20030;-88
2023/09/06 12:37:43;;;;;;;5.15;1.58;;;;;;;;;;5007354;28;20042;-85
2023/09/06 12:40:10;;;;;;;4.95;1.60;;;35.20;33.50;;;;;;5013334;28;20033;-87
2023/09/06 12:42:37;;;;;;;2.63;1.88;;;35.30;33.30;;;;;;5012282;28;20591;-86
2023/09/06 12:45:04;;;;;;;3.55;1.63;;;34.90;33.10;;;;;;5004533;28;20113;-86
2023/09/06 12:47:29;;;;;;;;;;;34.80;33.70;;;;;;5011553;28;20112;-79
2023/09/06 12:49:56;;;;;;;2.58;1.92;;;;;;;;;;5022076;28;20421;-80
2023/09/06 12:52:22;;;;;;;;;;;34.10;34.50;;;;;;5014296;28;20160;-81
2023/09/06 12:54:48;;;;;;;3.45;1.70;;;;;;;;;;5005261;28;20027;-81
2023/09/06 12:57:17;;;;;;;4.78;2.28;;;;;;;;;;5009862;28;20124;-80
2023/09/06 12:59:43;;;;;;;3.17;1.65;;;;;;;;;;5010139;28;20072;-86
2023/09/06 13:02:09;;;;;;;2.65;1.60;;;;;;;;;;5010647;28;20099;-87
2023/09/06 13:04:35;;;;;;;4.20;1.58;;;;;;;;;;5009730;28;20037;-90
2023/09/06 13:07:01;;;;;;;3.85;2.00;;;;;;;;;;5009350;28;20053;-81
2023/09/06 13:09:27;;;;;;;7.30;2.55;;;;;;;;;;5013795;28;20096;-80
2023/09/06 13:11:53;;;;;;;2.85;1.80;;;;;;;;;;5009642;28;20061;-81
2023/09/06 13:14:19;;;;;;;6.05;2.00;;;;;;;;;;5006086;28;20417;-80
2023/09/06 13:16:45;;;;;;;6.55;2.10;;;;;;;;;;5009262;28;20533;-81
2023/09/06 13:19:12;;;;;;;2.88;2.13;;;;;;;;;;5007716;28;20550;-80
2023/09/06 13:21:38;;;;;;;2.55;1.88;;;;;;;;;;5006091;28;20519;-80
2023/09/06 13:24:04;;;;;;;3.05;1.45;;;;;;;;;;5010212;28;20151;-80
2023/09/06 13:26:30;;;;;;;8.10;1.63;;;;;;;;;;5010898;28;20026;-80
2023/09/06 13:28:56;;;;;;;2.65;1.75;;;;;;;;;;5012190;28;20037;-80
2023/09/06 13:31:22;;;;;;;3.92;1.77;;;;;;;;;;5006805;28;20037;-80
2023/09/06 13:33:48;;;;;;;5.00;1.70;;;;;;;;;;5003351;28;20031;-81
2023/09/06 13:36:14;;;;;;;2.10;1.65;;;;;;;;;;5001226;28;20044;-80
2023/09/06 13:38:40;;;;;;;3.58;1.83;;;;;;;;;;5014470;28;20402;-81
2023/09/06 13:41:06;;;;;;;2.70;1.42;;;;;;;;;;5025672;28;20022;-80
2023/09/06 13:43:32;;;;;;;4.60;2.88;;;;;;;;;;5012288;28;20030;-81
2023/09/06 13:45:59;;;;;;;3.83;1.80;;;;;;;;;;5008119;28;20034;-80
2023/09/06 13:48:25;;;;;;;2.90;1.70;;;;;;;;;;5010323;28;20406;-80
2023/09/06 13:50:51;;;;;;;5.75;1.75;;;;;;;;;;5009003;28;20492;-81
2023/09/06 13:53:17;;;;;;;3.33;2.47;;;;;;;;;;5016433;28;20079;-82
2023/09/06 13:55:43;;;;;;;2.10;1.50;;;;;;;;;;5013616;28;20038;-80
2023/09/06 13:58:10;;;;;;;4.20;2.25;;;;;;;;;;5008838;28;20033;-80